LOWL/LNZ METAR and TAF weather

Enter ICAO airport designator
Station Type Date Time Source
LOWL METAR 2021/03/05 14:20 UTC NOAA

LOWL 051420Z 21004KT 160V250 9999 FEW008 SCT012 BKN033 03/01 Q1023 NOSIG


Station Type Date Time Source
LOWL Decoded METAR 2021/03/05 14:20 UTC NOAA

Linz / Hoersching-Flughafen, Austria (LOWL) 48-14N 014-11E 313M
Mar 05, 2021 - 09:20 AM EST / 2021.03.05 1420 UTC
Wind: from the SSW (210 degrees) at 5 MPH (4 KT) (direction variable):0
Visibility: greater than 7 mile(s):0
Sky conditions: mostly cloudy
Temperature: 37 F (3 C)
Dew Point: 33 F (1 C)
Relative Humidity: 86%
Pressure (altimeter): 30.21 in. Hg (1023 hPa)
ob: LOWL 051420Z 21004KT 160V250 9999 FEW008 SCT012 BKN033 03/01 Q1023 NOSIG
cycle: 14

Station Type Date Time Source
LOWL TAF 2021/03/05 12:21 UTC NOAA

TAF LOWL 051115Z 0512/0612 07005KT 9999 SCT012 BKN030 TX04/0612Z TNM03/0605Z
TEMPO 0512/0516 7000 -RASN SCT005 BKN012
BECMG 0518/0521 10007KT CAVOK

Example: see airport list